Time;durP1;ratioP1;P1;durP2;ratioP2;P2;SDS_P1;SDS_P2;PMS_P1;PMS_P2;Temp;Humidity;BMP_temperature;BMP_pressure;BME280_temperature;BME280_humidity;BME280_pressure;Samples;Min_cycle;Max_cycle;Signal;HPM_P1;HPM_P2
2023/03/10 00:02:23;;;;;;;12.15;6.43;;;11.80;99.90;;;;;;4935597;29;20390;-72
2023/03/10 00:04:52;;;;;;;14.55;7.60;;;11.80;99.90;;;;;;4935583;29;20181;-73
2023/03/10 00:07:18;;;;;;;17.98;9.73;;;11.80;99.90;;;;;;4935453;29;20411;-73
2023/03/10 00:09:45;;;;;;;25.02;10.70;;;11.80;99.90;;;;;;4935091;29;20106;-73
2023/03/10 00:12:11;;;;;;;21.33;10.15;;;11.80;99.90;;;;;;4938623;29;20478;-73
2023/03/10 00:14:37;;;;;;;17.73;8.30;;;11.80;99.90;;;;;;4939237;29;20470;-74
2023/03/10 00:17:03;;;;;;;23.65;8.23;;;11.80;99.90;;;;;;4939512;29;20027;-73
2023/03/10 00:19:29;;;;;;;29.17;12.10;;;11.80;99.90;;;;;;4939581;29;20024;-74
2023/03/10 00:21:56;;;;;;;18.85;8.75;;;11.80;99.90;;;;;;4939410;29;20114;-74
2023/03/10 00:24:22;;;;;;;31.77;9.45;;;11.80;99.90;;;;;;4939200;29;20047;-75
2023/03/10 00:26:51;;;;;;;17.77;7.50;;;11.80;99.90;;;;;;4938171;29;20142;-74
2023/03/10 00:29:17;;;;;;;13.95;6.35;;;11.70;99.90;;;;;;4939010;29;20106;-73
2023/03/10 00:31:43;;;;;;;21.73;8.32;;;11.70;99.90;;;;;;4937662;29;20088;-73
2023/03/10 00:34:10;;;;;;;17.52;9.55;;;11.60;99.90;;;;;;4921844;29;20043;-74
2023/03/10 00:36:36;;;;;;;20.80;8.98;;;11.60;99.90;;;;;;4922021;29;20084;-74
2023/03/10 00:39:04;;;;;;;15.00;8.35;;;11.60;99.90;;;;;;4921566;29;20047;-73
2023/03/10 00:41:32;;;;;;;15.02;6.30;;;11.50;99.90;;;;;;4939070;29;20035;-74
2023/03/10 00:43:59;;;;;;;15.40;5.95;;;11.40;99.90;;;;;;4938734;29;20525;-74
2023/03/10 00:46:26;;;;;;;15.38;7.10;;;11.50;99.90;;;;;;4921821;29;20466;-73
2023/03/10 00:48:53;;;;;;;17.48;8.13;;;11.50;99.90;;;;;;4921217;29;20466;-72
2023/03/10 00:51:19;;;;;;;13.98;6.35;;;11.40;99.90;;;;;;4937645;29;20027;-73
2023/03/10 00:53:46;;;;;;;13.77;6.85;;;11.40;99.90;;;;;;4938764;29;20095;-73
2023/03/10 00:56:16;;;;;;;10.98;5.50;;;11.40;99.90;;;;;;4937451;29;20031;-73
2023/03/10 00:58:44;;;;;;;6.97;4.43;;;11.30;99.90;;;;;;4920180;29;20031;-72
2023/03/10 01:01:22;;;;;;;15.50;6.65;;;11.30;99.90;;;;;;4938759;29;20112;-74
2023/03/10 01:03:53;;;;;;;11.25;5.28;;;11.20;99.90;;;;;;4926115;29;20032;-73
2023/03/10 01:06:20;;;;;;;18.00;4.43;;;11.20;99.90;;;;;;4937096;29;20058;-73
2023/03/10 01:08:46;;;;;;;10.02;4.22;;;11.20;99.90;;;;;;4937243;29;20028;-74
2023/03/10 01:11:17;;;;;;;8.63;4.53;;;11.20;99.90;;;;;;4937029;29;20111;-74
2023/03/10 01:13:44;;;;;;;8.55;4.03;;;11.20;99.90;;;;;;4936881;29;20427;-73
2023/03/10 01:16:10;;;;;;;7.40;4.28;;;11.20;99.90;;;;;;4938412;29;20023;-74
2023/03/10 01:18:36;;;;;;;14.02;6.07;;;11.20;99.90;;;;;;4927153;29;20553;-74
2023/03/10 01:21:03;;;;;;;14.60;5.90;;;11.20;99.90;;;;;;4923034;29;20111;-73
2023/03/10 01:23:30;;;;;;;13.30;6.57;;;11.20;99.90;;;;;;4915710;29;20091;-74
2023/03/10 01:25:56;;;;;;;19.60;7.18;;;11.20;99.90;;;;;;4902147;29;20082;-75
2023/03/10 01:28:22;;;;;;;13.88;6.97;;;11.20;99.90;;;;;;4936879;29;20190;-74
2023/03/10 01:30:48;;;;;;;14.25;7.70;;;11.20;99.90;;;;;;4920939;29;20028;-74
2023/03/10 01:33:16;;;;;;;16.58;7.30;;;11.20;99.90;;;;;;4938076;29;20027;-73
2023/03/10 01:35:42;;;;;;;14.18;6.68;;;11.10;99.90;;;;;;4938101;29;20131;-74
2023/03/10 01:38:10;;;;;;;25.92;8.70;;;11.10;99.90;;;;;;4936882;29;20119;-73
2023/03/10 01:40:37;;;;;;;16.05;6.90;;;11.00;99.90;;;;;;4920862;29;20115;-73
2023/03/10 01:43:18;;;;;;;13.07;7.55;;;10.90;99.90;;;;;;4921035;29;20036;-73
2023/03/10 01:45:44;;;;;;;28.90;9.57;;;10.80;99.90;;;;;;4937698;29;20032;-74
2023/03/10 01:48:13;;;;;;;23.13;8.88;;;10.80;99.90;;;;;;4936693;29;20020;-73
2023/03/10 01:50:40;;;;;;;21.10;8.15;;;10.80;99.90;;;;;;4937769;29;20531;-74
2023/03/10 01:53:07;;;;;;;20.90;9.02;;;10.80;99.90;;;;;;4937691;29;20454;-73
2023/03/10 01:55:36;;;;;;;18.27;8.27;;;10.80;99.90;;;;;;4920491;29;20024;-74
2023/03/10 01:58:06;;;;;;;14.98;7.80;;;10.80;99.90;;;;;;4920658;29;20042;-74
2023/03/10 02:00:33;;;;;;;19.65;8.50;;;10.70;99.90;;;;;;4920441;29;20078;-74
2023/03/10 02:03:28;;;;;;;21.15;8.43;;;10.80;99.90;;;;;;4937539;29;20024;-73
2023/03/10 02:05:58;;;;;;;22.67;9.63;;;10.70;99.90;;;;;;4920312;29;20107;-74
2023/03/10 02:08:28;;;;;;;22.83;10.35;;;10.70;99.90;;;;;;4935929;29;20039;-74
2023/03/10 02:10:55;;;;;;;22.58;9.57;;;10.80;99.90;;;;;;4937386;29;20109;-74
2023/03/10 02:13:21;;;;;;;22.63;9.75;;;10.80;99.90;;;;;;4920051;29;20020;-74
2023/03/10 02:15:48;;;;;;;22.38;10.43;;;10.80;99.90;;;;;;4937374;29;20035;-74
2023/03/10 02:18:19;;;;;;;21.38;7.97;;;10.80;99.90;;;;;;4919902;29;20114;-73
2023/03/10 02:21:09;;;;;;;24.40;8.27;;;10.80;99.90;;;;;;4937425;29;20043;-74
2023/03/10 02:23:59;;;;;;;16.55;7.75;;;10.70;99.90;;;;;;4927027;29;20495;-74
2023/03/10 02:26:52;;;;;;;22.58;9.00;;;10.60;99.90;;;;;;4937166;29;20058;-74
2023/03/10 02:29:41;;;;;;;17.10;8.48;;;10.60;99.90;;;;;;4919839;29;20043;-73
2023/03/10 02:32:08;;;;;;;14.27;7.97;;;10.60;99.90;;;;;;4942200;29;20035;-74
2023/03/10 02:34:34;;;;;;;17.48;8.02;;;10.60;99.90;;;;;;4919652;29;20032;-74
2023/03/10 02:37:00;;;;;;;17.08;8.15;;;10.60;99.90;;;;;;4936157;29;20083;-74
2023/03/10 02:39:26;;;;;;;13.38;7.75;;;10.50;99.90;;;;;;4936657;29;20027;-74
2023/03/10 02:41:52;;;;;;;15.75;7.18;;;10.50;99.90;;;;;;4936504;29;20035;-74
2023/03/10 02:44:22;;;;;;;13.40;7.10;;;10.50;99.90;;;;;;4919497;29;20497;-75
2023/03/10 02:46:50;;;;;;;13.10;6.88;;;10.50;99.90;;;;;;4919519;29;20520;-74
2023/03/10 02:49:18;;;;;;;14.07;6.53;;;10.60;99.90;;;;;;4936726;29;20478;-74
2023/03/10 02:51:45;;;;;;;16.10;7.53;;;10.50;99.90;;;;;;4935384;29;20525;-72
2023/03/10 02:54:14;;;;;;;16.55;7.25;;;10.50;99.90;;;;;;4935311;29;20113;-73
2023/03/10 02:56:41;;;;;;;13.05;7.18;;;10.60;99.90;;;;;;4935318;29;20032;-73
2023/03/10 02:59:09;;;;;;;15.75;7.25;;;10.50;99.90;;;;;;4919447;29;20028;-73
2023/03/10 03:01:39;;;;;;;12.70;5.90;;;10.60;99.90;;;;;;4918834;29;20039;-72
2023/03/10 03:04:05;;;;;;;10.82;6.03;;;10.60;99.90;;;;;;4947950;29;20031;-73
2023/03/10 03:06:31;;;;;;;11.05;6.50;;;10.70;99.90;;;;;;4923382;29;20429;-73
2023/03/10 03:08:58;;;;;;;16.77;7.57;;;10.60;99.90;;;;;;4919092;29;20079;-73
2023/03/10 03:11:26;;;;;;;19.30;7.97;;;10.60;99.90;;;;;;4919183;29;20028;-73
2023/03/10 03:13:53;;;;;;;13.40;7.32;;;10.60;99.90;;;;;;4934308;29;20027;-72
2023/03/10 03:16:19;;;;;;;15.00;7.70;;;10.60;99.90;;;;;;4918665;29;20099;-72
2023/03/10 03:18:49;;;;;;;16.02;8.38;;;10.60;99.90;;;;;;4918638;29;20058;-72
2023/03/10 03:21:18;;;;;;;14.20;7.07;;;10.60;99.90;;;;;;4919009;29;20051;-72
2023/03/10 03:23:45;;;;;;;12.20;6.30;;;10.50;99.90;;;;;;4935485;29;20046;-72
2023/03/10 03:26:18;;;;;;;10.82;6.43;;;10.50;99.90;;;;;;4918536;29;20071;-73
2023/03/10 03:28:45;;;;;;;13.40;5.05;;;10.40;99.90;;;;;;4918257;29;20059;-73
2023/03/10 03:31:15;;;;;;;9.60;5.10;;;10.30;99.90;;;;;;4935350;29;20459;-73
2023/03/10 03:33:41;;;;;;;10.57;5.30;;;9.90;99.90;;;;;;4918820;29;20478;-72
2023/03/10 03:36:08;;;;;;;10.65;5.05;;;9.90;99.90;;;;;;4918633;29;20398;-74
2023/03/10 03:38:34;;;;;;;9.82;4.63;;;9.90;99.90;;;;;;4917948;29;20040;-74
2023/03/10 03:41:00;;;;;;;8.90;4.85;;;10.00;99.90;;;;;;4935549;29;20083;-75
2023/03/10 03:43:28;;;;;;;7.68;4.97;;;9.90;99.90;;;;;;4934251;29;20038;-75
2023/03/10 03:45:55;;;;;;;8.93;4.13;;;9.90;99.90;;;;;;4917552;29;20127;-75
2023/03/10 03:48:21;;;;;;;6.60;3.28;;;9.90;99.90;;;;;;4933780;29;20042;-75
2023/03/10 03:50:47;;;;;;;9.30;4.60;;;9.90;99.90;;;;;;4918422;29;20114;-74
2023/03/10 03:53:21;;;;;;;17.80;5.35;;;10.00;99.90;;;;;;4918120;29;20032;-75
2023/03/10 03:55:49;;;;;;;10.60;4.85;;;10.00;99.90;;;;;;4934968;29;20036;-74
2023/03/10 03:58:17;;;;;;;16.02;4.97;;;10.00;99.90;;;;;;4918132;29;20051;-74
2023/03/10 04:00:43;;;;;;;9.93;5.63;;;10.00;99.90;;;;;;4933617;29;20066;-74
2023/03/10 04:03:09;;;;;;;10.82;5.05;;;10.00;99.90;;;;;;4935536;29;20035;-74
2023/03/10 04:05:36;;;;;;;13.18;6.25;;;10.00;99.90;;;;;;4936267;29;20122;-74
2023/03/10 04:08:02;;;;;;;12.18;6.03;;;10.00;99.90;;;;;;4938518;29;20131;-74
2023/03/10 04:10:29;;;;;;;9.63;5.43;;;10.00;99.90;;;;;;4934144;29;20028;-75
2023/03/10 04:12:55;;;;;;;13.25;5.32;;;10.00;99.90;;;;;;4933785;29;20398;-74
2023/03/10 04:15:23;;;;;;;11.85;6.18;;;10.00;99.90;;;;;;4917931;29;20030;-73
2023/03/10 04:17:50;;;;;;;10.68;6.03;;;10.00;99.90;;;;;;4918092;29;20032;-74
2023/03/10 04:20:16;;;;;;;13.80;6.40;;;10.00;99.90;;;;;;4935174;29;20031;-74
2023/03/10 04:22:46;;;;;;;17.77;8.20;;;10.00;99.90;;;;;;4902882;29;20055;-75
2023/03/10 04:25:12;;;;;;;11.88;6.55;;;10.00;99.90;;;;;;4918051;29;20044;-74
2023/03/10 04:27:39;;;;;;;11.35;6.38;;;10.00;99.90;;;;;;4935038;29;20020;-74
2023/03/10 04:30:06;;;;;;;12.15;6.80;;;10.00;99.90;;;;;;4933568;29;20123;-73
2023/03/10 04:32:35;;;;;;;13.45;7.30;;;10.00;99.90;;;;;;4917602;29;20035;-73
2023/03/10 04:35:04;;;;;;;19.88;9.70;;;10.10;99.90;;;;;;4934769;29;20126;-74
2023/03/10 04:37:30;;;;;;;28.92;13.05;;;10.10;99.90;;;;;;4918177;29;20015;-75
2023/03/10 04:39:56;;;;;;;22.92;11.02;;;10.10;99.90;;;;;;4933632;29;20485;-74
2023/03/10 04:42:22;;;;;;;18.80;8.20;;;10.00;99.90;;;;;;4933485;29;20076;-75
2023/03/10 04:44:50;;;;;;;23.00;10.00;;;10.00;99.90;;;;;;4934327;29;20431;-74
2023/03/10 04:47:16;;;;;;;18.38;8.85;;;9.90;99.90;;;;;;4933590;29;20469;-75
2023/03/10 04:49:42;;;;;;;14.90;7.88;;;10.00;99.90;;;;;;4918093;29;20075;-74
2023/03/10 04:52:11;;;;;;;17.15;7.35;;;9.90;99.90;;;;;;4932487;29;20024;-74
2023/03/10 04:54:37;;;;;;;23.13;8.75;;;9.90;99.90;;;;;;4935323;29;20043;-74
2023/03/10 04:57:02;;;;;;;19.88;9.20;;;9.90;99.90;;;;;;4935825;29;20047;-75
2023/03/10 04:59:28;;;;;;;15.55;8.63;;;9.80;99.90;;;;;;4937819;29;20038;-75
2023/03/10 05:01:54;;;;;;;15.77;7.72;;;9.80;99.90;;;;;;4936822;29;20084;-75
2023/03/10 05:04:20;;;;;;;14.55;8.10;;;9.80;99.90;;;;;;4920875;29;20028;-75
2023/03/10 05:06:51;;;;;;;17.90;8.20;;;9.80;99.90;;;;;;4909384;29;20134;-74
2023/03/10 05:09:27;;;;;;;13.93;7.68;;;9.80;99.90;;;;;;4921404;29;20577;-74
2023/03/10 05:11:53;;;;;;;16.63;9.18;;;9.80;99.90;;;;;;4937225;29;20086;-75
2023/03/10 05:14:19;;;;;;;16.73;9.43;;;9.80;99.90;;;;;;4921341;29;20024;-73
2023/03/10 05:16:47;;;;;;;18.15;9.10;;;9.80;99.90;;;;;;4936694;29;20438;-74
2023/03/10 05:19:13;;;;;;;18.33;8.40;;;9.90;99.90;;;;;;4937691;29;20031;-75
2023/03/10 05:21:39;;;;;;;13.75;7.82;;;9.90;99.90;;;;;;4937145;29;20035;-75
2023/03/10 05:24:08;;;;;;;17.25;7.18;;;9.80;99.90;;;;;;4921014;29;20107;-73
2023/03/10 05:26:34;;;;;;;14.68;7.90;;;9.90;99.90;;;;;;4921653;29;20036;-75
2023/03/10 05:29:00;;;;;;;16.08;8.25;;;9.90;99.90;;;;;;4920808;29;20063;-74
2023/03/10 05:31:37;;;;;;;20.52;11.13;;;9.90;99.90;;;;;;4936519;29;20019;-77
2023/03/10 05:34:09;;;;;;;21.88;9.57;;;9.90;99.90;;;;;;4920809;29;20110;-77
2023/03/10 05:36:35;;;;;;;19.98;11.93;;;10.00;99.90;;;;;;4936753;29;20034;-78
2023/03/10 05:39:04;;;;;;;23.55;11.75;;;10.10;99.90;;;;;;4921184;29;20553;-78
2023/03/10 05:41:34;;;;;;;22.25;10.43;;;10.20;99.90;;;;;;4943734;29;20063;-76
2023/03/10 05:44:00;;;;;;;22.67;11.05;;;10.40;99.90;;;;;;4939427;29;20463;-77
2023/03/10 05:46:26;;;;;;;19.40;11.07;;;10.60;99.90;;;;;;4936399;29;20040;-78
2023/03/10 05:48:56;;;;;;;24.33;11.77;;;11.00;99.90;;;;;;4920696;29;20030;-78
2023/03/10 05:51:23;;;;;;;28.35;14.30;;;11.30;99.90;;;;;;4920603;29;20036;-76
2023/03/10 05:53:48;;;;;;;21.40;13.07;;;11.40;99.90;;;;;;4936472;29;20051;-77
2023/03/10 05:56:20;;;;;;;21.35;11.35;;;11.40;99.90;;;;;;4936339;29;20473;-75
2023/03/10 05:58:50;;;;;;;22.80;12.65;;;11.40;99.90;;;;;;4936442;29;20035;-76
2023/03/10 06:01:18;;;;;;;22.70;10.98;;;11.30;99.90;;;;;;4945306;29;20489;-76
2023/03/10 06:03:44;;;;;;;24.80;13.13;;;11.30;99.90;;;;;;4937595;29;20028;-75
2023/03/10 06:06:11;;;;;;;21.42;10.52;;;11.20;99.90;;;;;;4937751;29;20044;-77
2023/03/10 06:08:37;;;;;;;20.58;12.43;;;11.00;99.90;;;;;;4936917;29;20019;-76
2023/03/10 06:11:04;;;;;;;23.02;12.95;;;10.80;99.90;;;;;;4937980;29;20043;-74
2023/03/10 06:13:30;;;;;;;23.55;13.60;;;10.80;99.90;;;;;;4937589;29;20071;-75
2023/03/10 06:16:02;;;;;;;23.33;11.65;;;10.90;99.90;;;;;;4945419;29;20035;-77
2023/03/10 06:18:28;;;;;;;22.30;11.90;;;10.90;99.90;;;;;;4937401;29;20020;-77
2023/03/10 06:20:55;;;;;;;22.73;12.80;;;10.80;99.90;;;;;;4937140;29;20473;-77
2023/03/10 06:23:21;;;;;;;32.25;16.30;;;10.80;99.90;;;;;;4938407;29;20035;-76
2023/03/10 06:25:59;;;;;;;31.38;18.23;;;10.80;99.90;;;;;;4937589;29;20066;-75
2023/03/10 06:28:26;;;;;;;30.83;17.35;;;10.80;99.90;;;;;;4936989;29;20417;-76
2023/03/10 06:30:56;;;;;;;29.98;17.13;;;10.90;99.90;;;;;;4937108;29;20028;-75
2023/03/10 06:33:23;;;;;;;30.30;17.13;;;11.00;99.90;;;;;;4936902;29;20035;-74
2023/03/10 06:35:48;;;;;;;31.42;18.33;;;11.00;99.90;;;;;;4919971;29;20082;-78
2023/03/10 06:38:14;;;;;;;30.75;14.55;;;11.10;99.90;;;;;;4936834;29;20118;-73
2023/03/10 06:40:40;;;;;;;24.92;13.30;;;11.20;99.90;;;;;;4937217;29;20035;-74
2023/03/10 06:43:06;;;;;;;26.77;12.65;;;11.30;99.90;;;;;;4936962;29;20032;-77
2023/03/10 06:45:32;;;;;;;26.35;12.13;;;11.30;99.90;;;;;;4936902;29;20028;-77
2023/03/10 06:47:58;;;;;;;25.02;15.23;;;11.30;99.90;;;;;;4936738;29;20063;-73
2023/03/10 06:50:34;;;;;;;31.67;13.88;;;11.30;99.90;;;;;;4918921;29;20039;-76
2023/03/10 06:53:00;;;;;;;28.38;13.63;;;11.40;99.90;;;;;;4936691;29;20032;-78
2023/03/10 06:55:26;;;;;;;31.35;16.05;;;11.40;99.90;;;;;;4936458;29;20110;-78
2023/03/10 06:57:52;;;;;;;32.90;17.48;;;11.40;99.90;;;;;;4936169;29;20474;-78
2023/03/10 07:00:18;;;;;;;30.88;17.60;;;11.40;99.90;;;;;;4935662;29;20032;-75
2023/03/10 07:02:44;;;;;;;31.80;19.45;;;11.40;99.90;;;;;;4928992;29;20027;-76
2023/03/10 07:05:12;;;;;;;38.67;18.75;;;11.40;99.90;;;;;;4931676;29;20123;-77
2023/03/10 07:07:38;;;;;;;35.97;17.27;;;11.50;99.90;;;;;;4934418;29;20047;-76
2023/03/10 07:10:05;;;;;;;37.65;19.90;;;11.50;99.90;;;;;;4922023;29;20513;-75
2023/03/10 07:12:31;;;;;;;31.38;19.38;;;11.60;99.90;;;;;;4930884;29;20389;-77
2023/03/10 07:14:57;;;;;;;37.13;20.25;;;11.70;99.90;;;;;;4931919;29;20043;-78
2023/03/10 07:17:23;;;;;;;35.42;24.77;;;11.80;99.90;;;;;;4917639;29;20390;-77
2023/03/10 07:19:49;;;;;;;42.55;28.20;;;11.80;99.90;;;;;;4921826;29;20024;-78
2023/03/10 07:22:15;;;;;;;45.50;27.73;;;11.90;99.90;;;;;;4935584;29;20036;-75
2023/03/10 07:24:41;;;;;;;41.28;26.42;;;11.90;99.90;;;;;;4936124;29;20036;-76
2023/03/10 07:27:07;;;;;;;39.90;26.25;;;12.00;99.90;;;;;;4936482;29;20043;-78
2023/03/10 07:29:33;;;;;;;43.25;28.08;;;12.00;99.90;;;;;;4936288;29;20389;-76
2023/03/10 07:31:59;;;;;;;39.33;26.58;;;12.00;99.90;;;;;;4933870;29;20481;-74
2023/03/10 07:34:25;;;;;;;49.50;29.50;;;12.10;99.90;;;;;;4917126;29;20024;-77
2023/03/10 07:36:51;;;;;;;53.10;34.53;;;12.10;99.90;;;;;;4921427;29;20028;-77
2023/03/10 07:39:17;;;;;;;59.80;37.67;;;12.10;99.90;;;;;;4916024;29;20028;-76
2023/03/10 07:41:43;;;;;;;62.60;37.35;;;12.10;99.90;;;;;;4918070;29;20060;-77
2023/03/10 07:44:09;;;;;;;64.30;37.60;;;12.00;99.90;;;;;;4918191;29;20115;-73
2023/03/10 07:46:35;;;;;;;57.85;34.63;;;12.00;99.90;;;;;;4932158;29;20035;-76
2023/03/10 07:49:03;;;;;;;55.28;33.13;;;12.10;99.90;;;;;;4936407;29;20035;-77
2023/03/10 07:51:30;;;;;;;57.80;36.08;;;12.10;99.90;;;;;;4936239;29;20134;-77
2023/03/10 07:53:57;;;;;;;48.22;33.53;;;12.10;99.90;;;;;;4936344;29;20115;-77
2023/03/10 07:56:23;;;;;;;59.28;37.05;;;12.10;99.90;;;;;;4936186;29;20055;-73
2023/03/10 07:58:48;;;;;;;53.05;34.67;;;12.10;99.90;;;;;;4935935;29;20461;-74
2023/03/10 08:01:17;;;;;;;49.65;31.58;;;12.10;99.90;;;;;;4936002;29;20470;-77
2023/03/10 08:03:43;;;;;;;54.55;34.13;;;12.00;99.90;;;;;;4936119;29;20075;-77
2023/03/10 08:06:16;;;;;;;50.50;31.33;;;12.00;99.90;;;;;;4935915;29;20489;-77
2023/03/10 08:08:42;;;;;;;41.45;25.73;;;11.90;99.90;;;;;;4936155;29;20466;-78
2023/03/10 08:11:11;;;;;;;32.55;20.08;;;11.80;99.90;;;;;;4936133;29;20028;-78
2023/03/10 08:13:37;;;;;;;30.95;19.33;;;11.70;99.90;;;;;;4935669;29;20131;-77
2023/03/10 08:16:03;;;;;;;33.28;18.67;;;11.70;99.90;;;;;;4935945;29;20027;-77
2023/03/10 08:18:31;;;;;;;31.33;18.45;;;11.70;99.90;;;;;;4935740;29;20024;-74
2023/03/10 08:20:58;;;;;;;26.52;17.23;;;11.60;99.90;;;;;;4935953;29;20084;-77
2023/03/10 08:23:24;;;;;;;26.20;15.27;;;11.60;99.90;;;;;;4935901;29;20466;-77
2023/03/10 08:25:50;;;;;;;26.88;15.70;;;11.60;99.90;;;;;;4935552;29;20115;-75
2023/03/10 08:28:16;;;;;;;24.38;15.38;;;11.60;99.90;;;;;;4935626;29;20034;-75
2023/03/10 08:30:42;;;;;;;26.75;16.20;;;11.50;99.90;;;;;;4935730;29;20028;-75
2023/03/10 08:33:10;;;;;;;28.75;16.92;;;11.60;99.90;;;;;;4938443;29;20031;-76
2023/03/10 08:35:36;;;;;;;31.08;18.40;;;11.50;99.90;;;;;;4939212;29;20031;-71
2023/03/10 08:38:03;;;;;;;34.88;17.05;;;11.50;99.90;;;;;;4939622;29;20064;-76
2023/03/10 08:40:30;;;;;;;29.73;16.80;;;11.50;99.90;;;;;;4939189;29;20086;-74
2023/03/10 08:42:56;;;;;;;29.48;15.90;;;11.50;99.90;;;;;;4939244;29;20087;-74
2023/03/10 08:45:22;;;;;;;25.23;14.68;;;11.60;99.90;;;;;;4939075;29;20031;-75
2023/03/10 08:47:48;;;;;;;31.23;18.15;;;11.60;99.90;;;;;;4939312;29;20043;-77
2023/03/10 08:50:14;;;;;;;21.95;13.35;;;11.50;99.90;;;;;;4939431;29;20070;-75
2023/03/10 08:52:40;;;;;;;20.08;12.00;;;11.40;99.90;;;;;;4939046;29;20039;-71
2023/03/10 08:55:06;;;;;;;21.70;11.23;;;11.40;99.90;;;;;;4938989;29;20028;-76
2023/03/10 08:57:32;;;;;;;23.80;12.35;;;11.40;99.90;;;;;;4939016;29;20504;-74
2023/03/10 08:59:58;;;;;;;24.38;13.10;;;11.40;99.90;;;;;;4938785;29;20027;-75
2023/03/10 09:02:25;;;;;;;43.95;24.30;;;11.40;99.90;;;;;;4939100;29;20107;-73
2023/03/10 09:04:51;;;;;;;48.80;27.77;;;11.50;99.90;;;;;;4938657;29;20034;-74
2023/03/10 09:07:17;;;;;;;70.65;40.42;;;11.50;99.90;;;;;;4938717;29;20406;-74
2023/03/10 09:09:43;;;;;;;45.33;21.05;;;11.50;99.90;;;;;;4921552;29;20522;-75
2023/03/10 09:12:10;;;;;;;23.95;13.85;;;11.50;99.90;;;;;;4938919;29;20038;-76
2023/03/10 09:14:37;;;;;;;19.80;10.60;;;11.50;99.90;;;;;;4921374;29;20035;-74
2023/03/10 09:17:04;;;;;;;19.05;8.77;;;11.50;99.90;;;;;;4938559;29;20066;-73
2023/03/10 09:19:30;;;;;;;13.57;6.22;;;11.50;99.90;;;;;;4938676;29;20375;-74
2023/03/10 09:21:56;;;;;;;8.65;4.07;;;11.60;99.90;;;;;;4939060;29;20041;-77
2023/03/10 09:24:25;;;;;;;8.05;3.47;;;11.60;99.90;;;;;;4938509;29;20091;-76
2023/03/10 09:26:51;;;;;;;10.43;3.47;;;11.60;99.90;;;;;;4938476;29;20047;-77
2023/03/10 09:29:16;;;;;;;4.50;2.58;;;11.70;99.90;;;;;;4938409;29;20030;-77
2023/03/10 09:31:43;;;;;;;6.03;2.85;;;11.70;99.90;;;;;;4938603;29;20349;-78
2023/03/10 09:34:10;;;;;;;7.30;3.70;;;11.70;99.90;;;;;;4938331;29;20023;-77
2023/03/10 09:36:37;;;;;;;13.07;5.35;;;11.80;99.90;;;;;;4938403;29;20445;-77
2023/03/10 09:39:03;;;;;;;7.00;3.88;;;11.80;99.90;;;;;;4938103;29;20051;-77
2023/03/10 09:42:06;;;;;;;9.13;4.28;;;11.80;99.90;;;;;;4938410;29;20111;-77
2023/03/10 09:44:45;;;;;;;8.00;3.85;;;11.80;99.90;;;;;;4925634;29;20490;-77
2023/03/10 09:47:29;;;;;;;7.40;3.65;;;11.80;99.90;;;;;;4938025;29;20035;-77
2023/03/10 09:50:18;;;;;;;8.25;4.15;;;11.90;99.90;;;;;;4938239;29;20059;-77
2023/03/10 09:53:20;;;;;;;8.68;4.53;;;11.90;99.90;;;;;;4927195;29;20070;-77
2023/03/10 09:55:46;;;;;;;9.73;2.92;;;11.90;99.90;;;;;;4938099;29;20482;-77
2023/03/10 09:58:25;;;;;;;5.25;2.67;;;11.90;99.90;;;;;;4937814;29;20477;-74
2023/03/10 10:00:51;;;;;;;5.65;3.00;;;12.00;99.90;;;;;;4938064;29;20139;-74
2023/03/10 10:03:22;;;;;;;7.35;3.83;;;12.00;99.90;;;;;;4937630;29;20100;-76
2023/03/10 10:05:54;;;;;;;7.68;3.47;;;12.00;99.90;;;;;;4937729;29;20397;-77
2023/03/10 10:08:20;;;;;;;;;;;12.00;99.90;;;;;;4938417;29;20032;-76
2023/03/10 10:10:51;;;;;;;11.68;5.30;;;12.10;99.90;;;;;;4937765;29;19918;-76
2023/03/10 10:13:16;;;;;;;6.65;3.90;;;12.20;99.90;;;;;;4937638;29;20038;-76
2023/03/10 10:15:48;;;;;;;15.23;8.27;;;12.30;99.90;;;;;;4937811;29;20024;-77
2023/03/10 10:18:26;;;;;;;21.50;13.93;;;12.40;99.90;;;;;;4937507;29;20034;-75
2023/03/10 10:20:59;;;;;;;27.52;16.88;;;12.40;99.90;;;;;;4937624;29;20470;-75
2023/03/10 10:23:42;;;;;;;40.05;23.20;;;12.50;99.90;;;;;;4937523;29;20028;-76
2023/03/10 10:26:16;;;;;;;36.05;22.23;;;12.50;99.90;;;;;;4920187;29;20450;-74
2023/03/10 10:28:55;;;;;;;27.95;19.23;;;12.50;99.90;;;;;;4937382;29;20063;-76
2023/03/10 10:31:24;;;;;;;31.40;19.85;;;12.50;99.90;;;;;;4937229;29;20032;-76
2023/03/10 10:34:05;;;;;;;23.75;17.00;;;12.50;99.90;;;;;;4936001;29;20091;-75
2023/03/10 10:36:33;;;;;;;21.77;13.85;;;12.50;99.90;;;;;;4926476;29;20034;-73
2023/03/10 10:39:01;;;;;;;24.77;15.20;;;12.50;99.90;;;;;;4937449;29;20024;-76
2023/03/10 10:41:33;;;;;;;25.38;14.70;;;12.60;99.90;;;;;;4937136;29;20043;-77
2023/03/10 10:44:14;;;;;;;22.00;14.15;;;12.70;99.90;;;;;;4936910;29;20116;-74
2023/03/10 10:46:52;;;;;;;19.65;11.07;;;12.70;99.90;;;;;;4936904;29;20091;-76
2023/03/10 10:49:20;;;;;;;23.65;12.80;;;12.70;99.90;;;;;;4937106;29;20055;-76
2023/03/10 10:52:16;;;;;;;22.83;14.73;;;12.80;99.90;;;;;;4936883;29;20027;-76
2023/03/10 10:54:50;;;;;;;29.42;18.85;;;12.80;99.90;;;;;;4936733;29;20038;-76
2023/03/10 10:57:21;;;;;;;23.40;15.35;;;12.80;99.90;;;;;;4936579;29;20027;-75
2023/03/10 10:59:47;;;;;;;28.70;14.82;;;12.80;99.90;;;;;;4936790;29;20028;-76
2023/03/10 11:02:33;;;;;;;20.88;13.02;;;12.80;99.90;;;;;;4938303;29;20047;-76
2023/03/10 11:05:11;;;;;;;18.58;11.68;;;12.80;99.90;;;;;;4945023;28;20046;-73
2023/03/10 11:07:37;;;;;;;17.85;11.27;;;12.70;99.90;;;;;;4936654;29;20036;-75
2023/03/10 11:10:13;;;;;;;19.42;10.32;;;12.70;99.90;;;;;;4936662;29;20042;-77
2023/03/10 11:12:52;;;;;;;16.48;9.30;;;12.70;99.90;;;;;;4936381;29;20058;-77
2023/03/10 11:16:02;;;;;;;19.15;11.65;;;12.70;99.90;;;;;;4936266;29;20038;-74
2023/03/10 11:18:38;;;;;;;22.60;11.43;;;12.80;99.90;;;;;;4858908;29;20504;-76
2023/03/10 11:21:21;;;;;;;19.35;9.98;;;12.90;99.90;;;;;;4859262;29;20518;-76
2023/03/10 11:24:17;;;;;;;18.08;11.55;;;12.90;99.90;;;;;;4859290;29;20049;-76
2023/03/10 11:27:05;;;;;;;18.25;10.02;;;12.90;99.90;;;;;;4843583;29;20480;-75
2023/03/10 11:30:00;;;;;;;16.15;8.55;;;13.00;99.90;;;;;;4859213;29;20048;-76
2023/03/10 11:33:03;;;;;;;15.60;10.27;;;13.00;99.90;;;;;;4851045;29;20037;-75
2023/03/10 11:35:35;;;;;;;;;;;13.00;99.90;;;;;;4786633;29;20054;-73
2023/03/10 11:38:01;;;;;;;15.15;8.25;;;13.10;99.90;;;;;;4786236;29;20368;-76
2023/03/10 11:40:39;;;;;;;15.60;8.77;;;13.10;99.90;;;;;;4786266;29;20051;-75
2023/03/10 11:43:28;;;;;;;21.90;12.32;;;13.10;99.90;;;;;;4786245;30;20043;-74
2023/03/10 11:45:59;;;;;;;20.67;11.38;;;13.20;99.90;;;;;;4786016;29;20151;-74
2023/03/10 11:48:40;;;;;;;19.02;10.70;;;13.30;99.90;;;;;;4785978;30;20104;-74
2023/03/10 11:51:16;;;;;;;16.08;9.35;;;13.40;99.90;;;;;;4786234;30;20089;-75
2023/03/10 11:53:48;;;;;;;14.43;8.18;;;13.50;99.90;;;;;;4786933;29;20104;-74
2023/03/10 11:56:18;;;;;;;15.00;8.70;;;13.70;99.90;;;;;;4850304;29;20038;-74
2023/03/10 11:59:02;;;;;;;18.48;9.68;;;13.80;99.90;;;;;;4858501;29;20049;-75
2023/03/10 12:01:31;;;;;;;13.18;7.35;;;14.00;99.90;;;;;;4858827;29;20542;-76
2023/03/10 12:04:09;;;;;;;11.55;6.97;;;14.00;99.90;;;;;;4858742;29;20025;-73
2023/03/10 12:06:43;;;;;;;16.00;7.60;;;14.10;99.90;;;;;;4857881;29;20519;-72
2023/03/10 12:09:24;;;;;;;14.80;7.97;;;14.20;99.90;;;;;;4858584;29;20093;-74
2023/03/10 12:11:51;;;;;;;12.55;6.85;;;14.40;99.90;;;;;;4882930;29;20043;-75
2023/03/10 12:14:17;;;;;;;13.65;6.90;;;14.50;99.90;;;;;;4935719;29;20028;-74
2023/03/10 12:16:46;;;;;;;13.35;6.90;;;14.60;99.90;;;;;;4935370;29;20127;-77
2023/03/10 12:19:12;;;;;;;9.55;5.60;;;14.70;99.90;;;;;;4935788;29;20031;-71
2023/03/10 12:21:38;;;;;;;15.90;8.43;;;14.80;99.90;;;;;;4935575;29;20031;-76
2023/03/10 12:24:04;;;;;;;16.02;8.43;;;15.00;99.90;;;;;;4935826;29;20028;-77
2023/03/10 12:26:39;;;;;;;10.82;6.45;;;15.20;99.90;;;;;;4935651;29;20506;-75
2023/03/10 12:29:20;;;;;;;13.05;7.57;;;15.20;99.90;;;;;;4935525;29;20043;-76
2023/03/10 12:31:55;;;;;;;12.73;7.05;;;15.30;99.90;;;;;;4935666;29;20039;-73
2023/03/10 12:34:22;;;;;;;18.50;9.85;;;15.40;99.90;;;;;;4935487;29;20028;-77
2023/03/10 12:36:53;;;;;;;14.52;7.95;;;15.50;99.90;;;;;;4918749;29;20390;-76
2023/03/10 12:39:38;;;;;;;15.40;7.43;;;15.70;99.90;;;;;;4935272;29;20024;-73
2023/03/10 12:42:26;;;;;;;12.68;6.85;;;15.80;99.90;;;;;;4935655;29;20050;-74
2023/03/10 12:45:20;;;;;;;13.30;6.35;;;15.80;99.90;;;;;;4935311;29;20482;-76
2023/03/10 12:48:06;;;;;;;13.98;5.40;;;15.80;99.90;;;;;;4935412;29;20031;-76
2023/03/10 12:50:34;;;;;;;12.85;6.95;;;15.70;99.90;;;;;;4935367;29;20529;-76